Time;durP1;ratioP1;P1;durP2;ratioP2;P2;SDS_P1;SDS_P2;PMS_P1;PMS_P2;Temp;Humidity;BMP_temperature;BMP_pressure;BME280_temperature;BME280_humidity;BME280_pressure;Samples;Min_cycle;Max_cycle;Signal;HPM_P1;HPM_P2
2023/01/11 00:00:45;;;;;;;12.35;3.17;;;;;;;1.94;65.30;100883.53;5014264;28;20048;-70
2023/01/11 00:03:12;;;;;;;18.77;4.47;;;;;;;2.13;64.91;100882.28;5013563;28;20041;-70
2023/01/11 00:05:40;;;;;;;16.13;3.30;;;;;;;1.95;65.28;100887.84;4993225;28;20131;-69
2023/01/11 00:08:07;;;;;;;19.48;3.70;;;;;;;2.10;64.49;100878.06;4993025;28;20084;-69
2023/01/11 00:10:35;;;;;;;18.30;3.05;;;;;;;2.04;65.06;100885.56;4992780;28;20100;-70
2023/01/11 00:13:02;;;;;;;14.77;3.15;;;;;;;1.90;65.72;100886.44;4992915;28;20046;-69
2023/01/11 00:15:29;;;;;;;17.15;3.15;;;;;;;1.78;65.23;100869.56;4993430;28;20050;-68
2023/01/11 00:17:56;;;;;;;14.20;2.88;;;;;;;1.97;64.94;100869.25;4993562;28;20046;-69
2023/01/11 00:20:23;;;;;;;16.98;3.45;;;;;;;1.90;65.21;100884.63;4993261;28;20054;-68
2023/01/11 00:22:49;;;;;;;23.35;3.75;;;;;;;1.94;64.59;100882.69;4992772;28;20039;-69
2023/01/11 00:25:16;;;;;;;15.15;2.67;;;;;;;1.93;65.24;100865.97;4994201;28;20042;-68
2023/01/11 00:27:43;;;;;;;15.45;2.90;;;;;;;1.75;65.39;100863.63;4991890;28;20144;-70
2023/01/11 00:30:10;;;;;;;18.58;2.95;;;;;;;1.89;64.81;100859.16;4992304;28;20053;-70
2023/01/11 00:32:36;;;;;;;16.08;3.03;;;;;;;1.80;65.21;100846.50;4993681;28;20053;-69
2023/01/11 00:35:03;;;;;;;21.38;3.63;;;;;;;1.87;64.90;100860.19;4985078;28;20042;-69
2023/01/11 00:37:30;;;;;;;17.05;2.90;;;;;;;1.88;64.89;100852.13;4993573;28;20130;-69
2023/01/11 00:39:56;;;;;;;14.13;2.38;;;;;;;1.85;65.49;100846.19;4994492;28;20137;-70
2023/01/11 00:47:56;;;;;;;18.58;3.88;;;;;;;1.80;65.87;100833.28;4992342;28;20482;-69
2023/01/11 00:50:24;;;;;;;15.30;2.83;;;;;;;1.68;65.62;100836.72;4989259;28;20057;-69
2023/01/11 00:52:50;;;;;;;12.77;3.08;;;;;;;1.71;66.17;100836.53;4993486;28;20046;-69
2023/01/11 00:55:17;;;;;;;17.50;3.50;;;;;;;1.84;65.83;100828.63;4994052;28;20042;-70
2023/01/11 00:57:44;;;;;;;17.88;3.30;;;;;;;1.71;65.87;100828.59;4992757;28;20046;-69
2023/01/11 01:00:11;;;;;;;16.30;3.15;;;;;;;1.56;66.18;100819.03;4993539;28;20055;-70
2023/01/11 01:02:38;;;;;;;17.40;2.95;;;;;;;1.98;65.24;100812.72;4976282;28;20046;-69
2023/01/11 01:05:05;;;;;;;17.83;3.35;;;;;;;1.86;65.61;100810.88;5006804;28;20128;-68
2023/01/11 01:07:31;;;;;;;14.65;3.08;;;;;;;1.86;65.10;100813.53;5013317;28;20056;-69
2023/01/11 01:09:58;;;;;;;10.57;3.10;;;;;;;1.82;65.04;100804.94;5013105;28;20044;-69
2023/01/11 01:15:09;;;;;;;15.50;3.47;;;;;;;1.73;65.93;100793.16;5013082;28;20124;-69
2023/01/11 01:17:36;;;;;;;13.05;3.38;;;;;;;1.72;65.77;100790.63;5012730;28;20149;-69
2023/01/11 01:20:03;;;;;;;16.83;2.78;;;;;;;1.86;65.41;100803.78;5010344;28;20050;-67
2023/01/11 01:22:29;;;;;;;13.93;2.63;;;;;;;1.70;65.43;100806.59;5012643;28;20046;-68
2023/01/11 01:24:56;;;;;;;15.77;2.70;;;;;;;1.80;65.30;100803.34;5013011;28;20056;-69
2023/01/11 01:27:22;;;;;;;16.23;2.83;;;;;;;1.89;64.76;100802.75;5012410;28;20050;-68
2023/01/11 01:29:49;;;;;;;18.35;2.95;;;;;;;1.92;65.42;100808.72;5013484;28;20495;-69
2023/01/11 01:32:15;;;;;;;15.85;2.53;;;;;;;1.90;64.48;100804.44;5012546;28;20520;-69
2023/01/11 01:34:42;;;;;;;14.35;3.15;;;;;;;1.79;64.95;100789.28;5013010;28;20494;-69
2023/01/11 01:37:10;;;;;;;12.93;2.72;;;;;;;1.99;64.49;100789.75;5012985;28;20410;-69
2023/01/11 01:39:37;;;;;;;15.32;3.08;;;;;;;1.97;64.37;100794.31;5011890;28;20068;-70
2023/01/11 01:42:04;;;;;;;12.85;2.60;;;;;;;1.91;64.47;100793.72;5011818;28;20056;-69
2023/01/11 01:45:15;;;;;;;12.55;2.55;;;;;;;1.96;64.11;100785.53;5011350;28;20069;-69
2023/01/11 01:47:52;;;;;;;17.55;3.42;;;;;;;2.05;64.40;100776.13;4912944;29;20052;-69
2023/01/11 01:50:28;;;;;;;17.90;2.78;;;;;;;2.09;64.26;100767.00;4913348;29;20054;-69
2023/01/11 01:53:02;;;;;;;28.05;3.75;;;;;;;2.00;63.82;100768.50;4904401;29;20052;-70
2023/01/11 01:55:35;;;;;;;7.65;2.25;;;;;;;2.13;63.80;100764.06;4913187;29;20048;-69
2023/01/11 01:58:06;;;;;;;13.85;2.58;;;;;;;2.11;64.11;100752.72;4913711;29;20043;-69
2023/01/11 02:00:32;;;;;;;10.75;2.03;;;;;;;2.09;63.32;100751.13;4912281;29;20549;-69
2023/01/11 02:03:00;;;;;;;18.67;2.55;;;;;;;2.24;63.04;100743.97;4914294;29;20052;-68
2023/01/11 02:09:57;;;;;;;12.23;3.17;;;;;;;2.40;62.90;100733.97;4895285;29;20047;-69
2023/01/11 02:12:48;;;;;;;19.02;3.47;;;;;;;2.24;62.94;100728.91;4858316;29;20577;-69
2023/01/11 02:15:17;;;;;;;9.73;2.20;;;;;;;2.38;62.41;100720.88;4893619;29;20399;-69
2023/01/11 02:17:43;;;;;;;10.35;2.75;;;;;;;2.23;62.90;100727.22;4895047;29;20057;-69
2023/01/11 02:20:18;;;;;;;8.77;2.50;;;;;;;2.34;62.29;100719.38;4894565;29;20048;-69
2023/01/11 02:22:45;;;;;;;12.68;2.08;;;;;;;2.39;61.64;100709.31;4989769;28;20055;-69
2023/01/11 02:25:11;;;;;;;10.48;2.55;;;;;;;2.39;61.66;100713.75;4992674;28;20392;-70
2023/01/11 02:28:21;;;;;;;17.95;2.67;;;;;;;2.29;61.86;100700.31;4992801;28;20060;-69
2023/01/11 02:31:06;;;;;;;10.88;2.08;;;;;;;2.29;61.69;100700.31;4945438;28;20395;-69
2023/01/11 02:33:35;;;;;;;11.68;2.70;;;;;;;2.50;61.11;100684.72;4992126;28;20042;-70
2023/01/11 02:36:11;;;;;;;13.18;2.60;;;;;;;2.37;60.98;100676.81;4992560;28;20120;-68
2023/01/11 02:38:56;;;;;;;9.40;1.95;;;;;;;2.36;62.04;100685.69;4990997;28;20080;-68
2023/01/11 02:47:20;;;;;;;8.55;1.92;;;;;;;2.46;61.18;100674.47;4992083;28;20043;-69
2023/01/11 02:49:58;;;;;;;13.52;2.53;;;;;;;2.52;61.30;100676.69;4991809;28;20061;-69
2023/01/11 02:52:54;;;;;;;16.08;2.53;;;;;;;2.43;61.31;100671.06;4991348;28;20046;-70
2023/01/11 02:55:26;;;;;;;9.57;1.83;;;;;;;2.55;60.76;100673.81;4991323;28;20553;-69
2023/01/11 02:57:56;;;;;;;15.90;2.38;;;;;;;2.57;60.42;100671.88;4991356;28;20050;-69
2023/01/11 03:00:24;;;;;;;7.72;1.58;;;;;;;2.48;61.03;100668.09;4990820;28;20133;-69
2023/01/11 03:03:12;;;;;;;9.88;2.45;;;;;;;2.49;61.24;100653.91;4989635;28;20088;-70
2023/01/11 03:06:02;;;;;;;13.73;2.15;;;;;;;2.51;60.91;100653.78;5009898;28;20046;-67
2023/01/11 03:08:57;;;;;;;13.02;2.63;;;;;;;2.32;61.15;100655.09;5010986;28;20384;-69
2023/01/11 03:14:55;;;;;;;9.75;1.67;;;;;;;2.54;61.23;100643.81;4955122;28;20050;-68
2023/01/11 03:17:27;;;;;;;10.55;2.13;;;;;;;2.41;61.22;100629.78;5009566;28;20046;-69
2023/01/11 03:20:25;;;;;;;10.20;2.10;;;;;;;2.34;61.14;100633.78;5010466;28;20418;-68
2023/01/11 03:23:26;;;;;;;8.00;1.90;;;;;;;2.24;61.70;100623.03;5002993;28;20096;-68
2023/01/11 03:25:55;;;;;;;19.50;2.47;;;;;;;2.35;61.33;100617.81;5009632;28;20495;-68
2023/01/11 03:28:58;;;;;;;7.78;2.10;;;;;;;2.54;60.69;100624.44;5008748;28;20037;-68
2023/01/11 03:31:37;;;;;;;11.07;1.63;;;;;;;2.31;61.05;100624.31;5009155;28;20057;-70
2023/01/11 03:34:25;;;;;;;13.65;2.60;;;;;;;2.41;61.14;100617.41;5010051;28;20046;-68
2023/01/11 03:37:00;;;;;;;7.65;1.80;;;;;;;2.42;61.24;100616.44;5010291;28;20053;-68
2023/01/11 03:39:52;;;;;;;8.77;2.20;;;;;;;2.38;61.49;100617.59;5010304;28;20426;-68
2023/01/11 03:42:22;;;;;;;11.32;2.05;;;;;;;2.52;60.75;100610.47;5009630;28;20129;-68
2023/01/11 03:44:54;;;;;;;10.55;2.20;;;;;;;2.55;61.07;100610.25;5004428;28;20510;-69
2023/01/11 03:47:24;;;;;;;10.60;2.22;;;;;;;2.56;61.14;100604.00;5009459;28;20491;-69
2023/01/11 03:50:00;;;;;;;9.05;2.42;;;;;;;2.51;60.53;100606.13;5010506;28;20060;-68
2023/01/11 03:52:31;;;;;;;12.57;2.03;;;;;;;2.53;60.89;100594.47;5010239;28;20041;-68
2023/01/11 03:54:59;;;;;;;7.22;2.30;;;;;;;2.66;60.77;100597.06;5010470;28;20049;-70
2023/01/11 03:57:36;;;;;;;5.90;1.58;;;;;;;2.58;60.71;100584.41;5010601;28;20128;-69
2023/01/11 04:00:06;;;;;;;11.93;2.20;;;;;;;2.51;61.32;100595.53;5010741;28;20050;-70
2023/01/11 04:02:39;;;;;;;5.40;1.77;;;;;;;2.72;60.92;100585.16;5009987;28;20402;-68
2023/01/11 04:05:08;;;;;;;10.30;3.08;;;;;;;2.69;61.06;100588.91;4995671;28;20130;-69
2023/01/11 04:07:34;;;;;;;9.10;1.98;;;;;;;2.62;61.03;100580.56;4990373;28;20050;-69
2023/01/11 04:10:02;;;;;;;12.90;2.33;;;;;;;2.53;61.21;100590.97;4989296;28;20052;-69
2023/01/11 04:12:29;;;;;;;12.93;2.78;;;;;;;2.68;61.11;100584.53;4990502;28;20042;-69
2023/01/11 04:14:55;;;;;;;10.52;1.88;;;;;;;2.72;61.34;100580.75;4989709;28;20419;-69
2023/01/11 04:17:22;;;;;;;5.95;1.45;;;;;;;2.75;61.12;100569.03;4989959;28;20053;-68
2023/01/11 04:19:48;;;;;;;11.40;2.55;;;;;;;2.70;61.56;100577.34;4989857;28;20050;-68
2023/01/11 04:22:15;;;;;;;9.25;1.80;;;;;;;2.70;61.34;100561.44;4990927;28;20050;-70
2023/01/11 04:24:41;;;;;;;9.07;1.63;;;;;;;2.62;61.73;100561.19;4988986;28;20077;-69
2023/01/11 04:27:08;;;;;;;15.57;2.05;;;;;;;2.65;61.94;100564.44;4991018;28;20054;-68
2023/01/11 04:29:34;;;;;;;6.60;2.00;;;;;;;2.74;62.06;100565.56;4973653;28;20535;-70
2023/01/11 04:32:02;;;;;;;13.25;2.10;;;;;;;2.80;61.25;100565.13;4990560;28;20487;-69
2023/01/11 04:34:28;;;;;;;10.40;1.90;;;;;;;2.91;61.35;100566.97;4986391;28;20069;-68
2023/01/11 04:36:55;;;;;;;11.40;2.03;;;;;;;2.66;61.82;100549.41;4990793;28;20053;-69
2023/01/11 04:39:22;;;;;;;11.82;2.22;;;;;;;2.80;61.98;100546.56;4991496;28;20053;-69
2023/01/11 04:44:33;;;;;;;10.52;2.22;;;;;;;2.87;61.35;100531.06;4993025;28;20105;-68
2023/01/11 04:46:59;;;;;;;12.15;2.38;;;;;;;2.69;62.19;100532.44;4994121;28;20045;-70
2023/01/11 04:49:26;;;;;;;9.98;2.13;;;;;;;2.81;62.03;100527.06;4994523;28;20046;-69
2023/01/11 04:51:52;;;;;;;9.98;2.30;;;;;;;2.79;62.02;100525.47;4993826;28;20060;-68
2023/01/11 04:54:19;;;;;;;12.52;1.75;;;;;;;2.70;62.36;100534.97;4993468;28;20042;-68
2023/01/11 04:56:45;;;;;;;14.10;1.90;;;;;;;2.90;62.02;100525.53;4993703;28;20525;-68
2023/01/11 04:59:13;;;;;;;6.20;1.98;;;;;;;2.77;62.02;100536.19;4993983;28;20050;-70
2023/01/11 05:01:39;;;;;;;11.23;1.95;;;;;;;2.69;62.39;100532.44;4993753;28;20463;-70
2023/01/11 05:04:06;;;;;;;14.25;2.45;;;;;;;2.64;62.67;100527.47;5000663;28;20046;-68
2023/01/11 05:06:32;;;;;;;6.75;1.60;;;;;;;2.74;62.94;100507.28;5013021;28;20076;-69
2023/01/11 05:08:59;;;;;;;7.72;1.73;;;;;;;2.71;62.93;100509.31;5013367;28;20053;-68
2023/01/11 05:11:25;;;;;;;9.98;2.00;;;;;;;2.88;62.45;100512.38;5013066;28;20449;-70
2023/01/11 05:13:52;;;;;;;5.55;1.80;;;;;;;2.65;63.01;100510.59;5013149;28;20049;-70
2023/01/11 05:16:22;;;;;;;8.13;1.83;;;;;;;2.68;63.20;100515.69;5013362;28;20050;-68
2023/01/11 05:18:50;;;;;;;10.50;2.20;;;;;;;2.75;63.08;100514.25;5009208;28;20060;-69
2023/01/11 05:21:20;;;;;;;9.07;1.98;;;;;;;2.95;62.36;100506.63;5012269;28;20046;-69
2023/01/11 05:23:47;;;;;;;7.90;1.92;;;;;;;2.72;63.41;100501.28;5011419;28;20042;-68
2023/01/11 05:26:21;;;;;;;10.80;2.50;;;;;;;2.86;63.06;100501.06;5012210;28;20137;-69
2023/01/11 05:28:49;;;;;;;6.63;1.77;;;;;;;2.74;63.03;100483.44;5012795;28;20136;-68
2023/01/11 05:31:16;;;;;;;7.93;1.77;;;;;;;2.88;62.92;100493.84;5002909;28;20045;-69
2023/01/11 05:33:43;;;;;;;13.82;2.40;;;;;;;2.81;63.40;100497.06;5012308;28;20054;-70
2023/01/11 05:36:13;;;;;;;10.82;1.90;;;;;;;2.94;63.13;100497.00;5012617;28;20042;-69
2023/01/11 05:38:39;;;;;;;17.73;2.50;;;;;;;2.95;63.36;100501.31;5012247;28;20046;-69
2023/01/11 05:41:08;;;;;;;7.93;1.80;;;;;;;3.02;63.31;100494.59;5012922;28;20049;-69
2023/01/11 05:46:21;;;;;;;15.27;2.78;;;;;;;2.94;63.47;100489.03;5011038;28;20037;-69
2023/01/11 05:48:48;;;;;;;12.77;2.28;;;;;;;3.07;63.69;100479.22;5011294;28;20071;-69
2023/01/11 05:51:14;;;;;;;13.88;2.30;;;;;;;3.20;63.28;100474.63;5011340;28;20045;-69
2023/01/11 05:53:41;;;;;;;12.85;1.70;;;;;;;3.10;63.70;100469.22;5012411;28;20050;-68
2023/01/11 05:56:08;;;;;;;9.25;1.77;;;;;;;2.96;65.43;100468.56;5012211;28;20042;-69
2023/01/11 05:58:34;;;;;;;12.00;2.05;;;;;;;3.17;64.61;100474.00;5012345;28;20046;-69
2023/01/11 06:01:01;;;;;;;6.90;1.67;;;;;;;3.23;64.69;100476.19;5011790;28;20074;-70
2023/01/11 06:03:27;;;;;;;5.65;1.65;;;;;;;3.18;65.32;100460.66;5010409;28;20050;-69
2023/01/11 06:05:54;;;;;;;13.18;2.30;;;;;;;3.13;64.95;100462.81;4992533;28;20042;-69
2023/01/11 06:08:20;;;;;;;9.50;2.92;;;;;;;3.24;65.16;100464.63;4991961;28;20502;-69
2023/01/11 06:10:54;;;;;;;10.35;2.30;;;;;;;3.33;64.61;100470.06;4991272;28;20054;-69
2023/01/11 06:13:25;;;;;;;8.73;2.28;;;;;;;3.04;65.22;100463.53;4991880;28;20046;-68
2023/01/11 06:16:05;;;;;;;7.85;2.53;;;;;;;3.06;65.60;100456.28;4992243;28;20050;-68
2023/01/11 06:18:35;;;;;;;14.05;3.33;;;;;;;3.26;64.47;100445.00;4992158;28;20410;-69
2023/01/11 06:21:03;;;;;;;9.38;2.30;;;;;;;3.02;65.12;100452.19;4992683;28;20125;-70
2023/01/11 06:23:32;;;;;;;12.80;2.58;;;;;;;3.14;64.73;100448.59;4991249;28;20080;-68
2023/01/11 06:26:03;;;;;;;7.75;1.90;;;;;;;3.19;64.66;100450.91;4990107;28;20054;-68
2023/01/11 06:28:30;;;;;;;9.85;1.92;;;;;;;3.30;64.61;100453.53;4990955;28;20049;-68
2023/01/11 06:30:58;;;;;;;9.20;1.83;;;;;;;3.17;64.69;100440.44;4972139;28;20060;-68
2023/01/11 06:33:26;;;;;;;8.27;2.08;;;;;;;3.15;65.17;100445.81;4991587;28;20423;-68
2023/01/11 06:35:53;;;;;;;6.40;1.85;;;;;;;3.14;64.91;100433.53;4990217;28;20131;-70
2023/01/11 06:38:22;;;;;;;4.38;1.42;;;;;;;3.15;65.07;100432.56;4991694;28;20038;-69
2023/01/11 06:40:59;;;;;;;5.93;1.63;;;;;;;3.05;64.84;100439.56;4991053;28;20061;-70
2023/01/11 06:43:27;;;;;;;8.27;1.92;;;;;;;3.25;64.81;100435.34;4991946;28;20105;-67
2023/01/11 06:45:54;;;;;;;14.10;2.42;;;;;;;3.20;64.98;100448.09;4991138;28;20106;-68
2023/01/11 06:48:21;;;;;;;7.95;1.80;;;;;;;3.06;65.13;100440.38;4984572;28;20046;-69
2023/01/11 06:50:53;;;;;;;6.35;1.50;;;;;;;3.08;65.04;100441.13;4991027;28;20418;-68
2023/01/11 06:53:21;;;;;;;11.40;2.08;;;;;;;3.11;64.87;100446.19;4991686;28;20046;-69
2023/01/11 06:55:51;;;;;;;7.60;1.55;;;;;;;3.25;64.81;100438.00;4991203;28;20426;-69
2023/01/11 06:58:19;;;;;;;9.98;1.98;;;;;;;3.26;64.54;100452.94;4991514;28;20050;-68
2023/01/11 07:00:46;;;;;;;7.40;2.05;;;;;;;3.07;65.17;100447.41;4973460;28;20042;-68
2023/01/11 07:03:12;;;;;;;10.02;2.00;;;;;;;3.12;65.45;100459.31;4990489;28;20420;-69
2023/01/11 07:05:40;;;;;;;5.30;1.63;;;;;;;3.15;64.92;100461.72;5010179;28;20050;-69
2023/01/11 07:08:07;;;;;;;10.32;2.17;;;;;;;3.21;64.47;100464.88;5011324;28;20493;-68
2023/01/11 07:10:33;;;;;;;9.70;1.67;;;;;;;3.13;64.60;100474.28;5011253;28;20120;-71
2023/01/11 07:13:00;;;;;;;8.88;1.60;;;;;;;3.10;65.26;100471.00;5011019;28;20120;-71
2023/01/11 07:15:27;;;;;;;7.07;1.70;;;;;;;3.11;64.68;100478.00;5010883;28;20727;-71
2023/01/11 07:17:58;;;;;;;6.78;2.08;;;;;;;3.05;65.10;100473.16;5000768;28;20454;-71
2023/01/11 07:20:25;;;;;;;13.13;2.17;;;;;;;2.99;65.27;100473.63;5008170;28;20495;-71
2023/01/11 07:22:57;;;;;;;11.98;1.95;;;;;;;3.05;64.90;100465.22;5009623;28;20570;-71
2023/01/11 07:25:24;;;;;;;6.40;1.80;;;;;;;3.08;65.33;100473.78;5010574;28;20046;-71
2023/01/11 07:27:58;;;;;;;8.02;2.05;;;;;;;3.06;65.38;100472.19;5009941;28;20046;-71
2023/01/11 07:30:27;;;;;;;7.07;1.65;;;;;;;3.14;65.07;100465.34;5010091;28;20046;-71
2023/01/11 07:32:55;;;;;;;6.82;1.50;;;;;;;3.03;65.38;100475.06;5009780;28;20477;-71
2023/01/11 07:35:22;;;;;;;13.90;2.83;;;;;;;3.19;65.23;100474.75;5009358;28;20418;-71
2023/01/11 07:37:48;;;;;;;7.45;1.83;;;;;;;3.09;65.50;100475.44;5009682;28;20064;-71
2023/01/11 07:40:16;;;;;;;10.75;2.20;;;;;;;3.13;65.74;100476.94;5009542;28;20416;-71
2023/01/11 07:45:41;;;;;;;4.80;1.55;;;;;;;3.03;65.89;100472.44;5007284;28;20049;-71
2023/01/11 07:48:12;;;;;;;7.97;1.83;;;;;;;3.13;65.73;100461.03;5009455;28;20136;-71
2023/01/11 07:50:40;;;;;;;7.82;2.13;;;;;;;3.11;65.73;100462.09;5010951;28;20056;-71
2023/01/11 07:53:11;;;;;;;10.38;1.90;;;;;;;3.30;65.41;100465.00;5009327;28;20126;-71
2023/01/11 07:55:38;;;;;;;8.88;2.10;;;;;;;3.29;65.75;100458.00;5010568;28;20049;-71
2023/01/11 07:58:06;;;;;;;6.18;1.73;;;;;;;3.25;65.88;100469.81;5007919;28;20429;-72
2023/01/11 08:00:33;;;;;;;5.88;1.30;;;;;;;3.04;65.90;100468.84;5010785;28;20077;-72
2023/01/11 08:03:00;;;;;;;12.75;4.32;;;;;;;3.31;65.55;100465.84;5009515;28;20052;-73
2023/01/11 08:05:27;;;;;;;9.40;2.47;;;;;;;3.29;66.06;100458.00;4992597;28;20077;-72
2023/01/11 08:07:53;;;;;;;10.18;2.78;;;;;;;3.29;65.96;100458.00;4990457;28;20074;-72
2023/01/11 08:10:20;;;;;;;13.13;3.10;;;;;;;3.28;65.85;100460.78;4989308;28;20052;-72
2023/01/11 08:15:38;;;;;;;9.38;3.13;;;;;;;3.38;66.14;100449.34;4993089;28;20125;-72
2023/01/11 08:18:05;;;;;;;11.90;3.75;;;;;;;3.48;66.08;100456.56;4993325;28;20072;-72
2023/01/11 08:20:32;;;;;;;12.20;3.55;;;;;;;3.51;65.64;100454.50;4993920;28;20057;-72
2023/01/11 08:23:05;;;;;;;11.82;3.25;;;;;;;3.39;66.50;100455.50;4993086;28;20054;-72
2023/01/11 08:25:34;;;;;;;8.70;2.55;;;;;;;3.27;66.64;100457.28;4993031;28;21399;-74
2023/01/11 08:28:04;;;;;;;9.07;3.20;;;;;;;3.47;66.54;100449.56;4993552;28;20061;-71
2023/01/11 08:30:31;;;;;;;8.95;2.70;;;;;;;3.51;66.21;100443.06;4993587;28;20510;-72
2023/01/11 08:32:59;;;;;;;14.82;3.10;;;;;;;3.72;66.00;100437.84;4993244;28;20057;-71
2023/01/11 08:35:26;;;;;;;6.63;2.13;;;;;;;3.62;66.21;100445.72;4992078;28;20066;-71
2023/01/11 08:37:53;;;;;;;11.20;2.92;;;;;;;3.59;66.40;100446.81;4993472;28;20418;-72
2023/01/11 08:40:19;;;;;;;10.45;2.80;;;;;;;3.78;66.08;100443.50;4993738;28;20084;-71
2023/01/11 08:42:54;;;;;;;6.82;1.88;;;;;;;3.76;66.25;100439.28;4993614;28;20100;-72
2023/01/11 08:45:21;;;;;;;2.55;1.33;;;;;;;3.86;65.96;100437.59;4989051;28;20042;-72
2023/01/11 08:47:49;;;;;;;8.18;2.33;;;;;;;3.97;65.74;100448.19;4992841;28;20097;-72
2023/01/11 08:50:17;;;;;;;8.23;1.65;;;;;;;3.81;66.59;100442.44;4992414;28;20046;-72
2023/01/11 08:52:44;;;;;;;9.82;2.40;;;;;;;3.96;66.08;100445.66;4992368;28;20046;-72
2023/01/11 08:55:11;;;;;;;6.80;1.88;;;;;;;3.91;66.67;100437.22;4992444;28;20042;-73
2023/01/11 08:57:38;;;;;;;10.43;1.88;;;;;;;3.98;66.20;100446.38;4993405;28;20054;-73
2023/01/11 09:00:06;;;;;;;5.25;1.70;;;;;;;3.83;66.72;100441.34;4992539;28;20088;-73
2023/01/11 09:02:33;;;;;;;9.43;1.83;;;;;;;4.00;66.78;100433.81;4992996;28;20054;-73
2023/01/11 09:04:59;;;;;;;5.97;1.90;;;;;;;3.94;66.54;100431.69;5001652;28;20049;-73
2023/01/11 09:07:26;;;;;;;6.03;1.80;;;;;;;4.01;66.93;100439.00;5012559;28;20387;-73
2023/01/11 09:09:52;;;;;;;9.73;1.98;;;;;;;4.14;66.43;100435.34;5012071;28;20053;-72
2023/01/11 09:12:19;;;;;;;6.60;2.03;;;;;;;4.07;66.65;100432.34;5012661;28;20053;-72
2023/01/11 09:14:45;;;;;;;6.82;2.03;;;;;;;3.85;67.36;100431.44;5008379;28;20607;-72
2023/01/11 09:17:12;;;;;;;13.20;2.40;;;;;;;4.10;66.94;100424.13;5012907;28;20410;-73
2023/01/11 09:19:38;;;;;;;8.50;1.85;;;;;;;4.18;66.93;100428.84;5013127;28;20132;-72
2023/01/11 09:22:05;;;;;;;3.63;1.60;;;;;;;4.23;66.77;100432.78;5011681;28;20410;-73
2023/01/11 09:24:31;;;;;;;7.18;1.83;;;;;;;4.06;67.62;100425.34;5004171;28;20041;-72
2023/01/11 09:26:59;;;;;;;3.92;1.63;;;;;;;4.00;69.71;100423.19;5011464;28;20425;-72
2023/01/11 09:29:25;;;;;;;13.57;1.85;;;;;;;3.96;70.85;100429.72;5012155;28;20452;-73
2023/01/11 09:31:52;;;;;;;8.23;2.10;;;;;;;3.96;71.43;100424.41;5011508;28;20103;-72
2023/01/11 09:34:19;;;;;;;4.22;1.58;;;;;;;3.74;73.00;100431.47;5010458;28;20421;-73
2023/01/11 09:36:47;;;;;;;3.80;1.70;;;;;;;3.73;73.69;100427.13;5011740;28;20104;-73
2023/01/11 09:39:17;;;;;;;4.72;1.80;;;;;;;3.66;74.60;100425.09;5011571;28;20046;-72
2023/01/11 09:41:44;;;;;;;6.07;1.90;;;;;;;3.58;75.60;100423.03;5010671;28;20077;-72
2023/01/11 09:44:17;;;;;;;10.73;2.08;;;;;;;3.61;76.41;100420.97;5011172;28;20044;-72
2023/01/11 09:46:50;;;;;;;10.18;2.42;;;;;;;3.53;76.93;100426.06;5010457;28;20056;-74
2023/01/11 09:49:30;;;;;;;8.32;2.28;;;;;;;3.62;76.94;100411.25;5011514;28;20053;-73
2023/01/11 09:52:20;;;;;;;4.28;2.20;;;;;;;3.57;77.82;100408.94;5011475;28;20417;-73
2023/01/11 09:54:47;;;;;;;7.97;2.50;;;;;;;3.53;78.19;100420.75;4997400;28;20061;-74
2023/01/11 09:57:17;;;;;;;10.23;2.60;;;;;;;3.60;78.08;100421.13;5012303;28;20050;-73
2023/01/11 09:59:51;;;;;;;4.22;2.13;;;;;;;3.67;78.50;100410.88;5011883;28;20501;-73
2023/01/11 10:02:58;;;;;;;7.30;2.63;;;;;;;3.57;78.57;100408.94;5011821;28;20069;-73
2023/01/11 10:05:28;;;;;;;5.78;2.50;;;;;;;3.58;79.22;100412.44;4992265;28;20129;-73
2023/01/11 10:08:29;;;;;;;3.67;2.10;;;;;;;3.56;79.59;100395.81;4992303;28;20070;-73
2023/01/11 10:11:48;;;;;;;5.72;2.15;;;;;;;3.48;79.78;100401.72;4989551;28;20541;-73
2023/01/11 10:14:58;;;;;;;5.90;2.60;;;;;;;3.70;80.11;100384.09;4998111;28;20154;-72
2023/01/11 10:18:29;;;;;;;6.88;2.15;;;;;;;3.72;79.73;100380.31;5010089;28;20458;-72
2023/01/11 10:21:26;;;;;;;10.18;2.55;;;;;;;3.75;79.90;100380.06;5011703;28;20050;-72
2023/01/11 10:23:56;;;;;;;9.55;2.45;;;;;;;3.80;79.96;100387.69;5010932;28;20525;-72
2023/01/11 10:26:31;;;;;;;7.18;3.28;;;;;;;3.86;79.68;100380.06;5010679;28;20044;-72
2023/01/11 10:34:58;;;;;;;5.25;2.30;;;;;;;3.71;80.40;100369.84;5008429;28;20049;-73
2023/01/11 10:37:48;;;;;;;9.43;2.97;;;;;;;3.86;79.77;100371.25;5009205;28;20415;-74
2023/01/11 10:40:39;;;;;;;4.85;3.25;;;;;;;3.82;79.87;100359.19;5008765;28;20124;-73
2023/01/11 10:43:20;;;;;;;4.45;2.10;;;;;;;3.82;79.98;100362.69;5009379;28;20114;-72
2023/01/11 10:45:51;;;;;;;8.00;2.42;;;;;;;3.85;79.53;100357.13;5009591;28;20045;-72
2023/01/11 10:48:27;;;;;;;6.82;2.95;;;;;;;3.82;80.27;100351.22;5009020;28;20065;-73
2023/01/11 10:50:53;;;;;;;7.90;2.72;;;;;;;3.92;80.65;100360.13;5008706;28;20478;-73
2023/01/11 10:53:27;;;;;;;4.60;2.50;;;;;;;3.70;81.18;100350.44;5009237;28;20054;-73
2023/01/11 10:56:05;;;;;;;5.50;2.78;;;;;;;3.92;80.84;100351.31;5008955;28;20056;-72
2023/01/11 10:59:05;;;;;;;6.95;2.72;;;;;;;3.94;81.19;100346.75;5008760;28;20068;-73
2023/01/11 11:01:45;;;;;;;5.78;2.35;;;;;;;4.02;81.33;100345.13;5009609;28;20459;-73
2023/01/11 11:04:41;;;;;;;4.85;2.53;;;;;;;4.10;81.78;100341.84;5006961;28;20049;-73
2023/01/11 11:07:23;;;;;;;6.28;2.80;;;;;;;4.16;81.37;100343.97;5008432;28;20906;-73
2023/01/11 11:10:25;;;;;;;7.25;2.53;;;;;;;4.16;81.57;100341.34;5009384;28;20053;-74
2023/01/11 11:13:06;;;;;;;5.45;2.63;;;;;;;4.02;82.16;100331.03;5009373;28;20042;-73
2023/01/11 11:15:39;;;;;;;6.47;2.75;;;;;;;3.98;82.24;100333.09;5003216;28;20073;-74
2023/01/11 11:18:06;;;;;;;6.72;2.83;;;;;;;3.96;82.61;100320.91;5009219;28;20046;-73
2023/01/11 11:20:33;;;;;;;10.07;3.60;;;;;;;4.11;82.44;100317.00;5008687;28;20054;-73
2023/01/11 11:23:00;;;;;;;8.27;3.13;;;;;;;4.12;82.56;100317.84;5008019;28;20141;-73
2023/01/11 11:25:36;;;;;;;6.15;3.13;;;;;;;4.28;82.32;100316.41;5007531;28;20130;-73
2023/01/11 11:28:05;;;;;;;12.18;2.83;;;;;;;4.16;82.21;100313.94;5007462;28;20056;-73
2023/01/11 11:30:38;;;;;;;8.93;2.97;;;;;;;4.08;83.16;100310.13;5007524;28;20124;-73
2023/01/11 11:33:26;;;;;;;5.32;2.92;;;;;;;4.29;82.75;100315.44;4999997;28;20073;-73
2023/01/11 11:36:00;;;;;;;3.70;2.55;;;;;;;4.09;83.01;100318.91;5008781;28;20044;-72
2023/01/11 11:38:29;;;;;;;5.60;2.88;;;;;;;4.17;83.41;100300.53;5009632;28;20041;-73
2023/01/11 11:41:16;;;;;;;5.68;3.60;;;;;;;4.21;82.55;100315.25;5008230;28;20052;-73
2023/01/11 11:43:46;;;;;;;5.25;3.00;;;;;;;4.14;82.80;100299.94;5006871;28;20056;-73
2023/01/11 11:46:12;;;;;;;7.45;3.85;;;;;;;4.24;82.77;100298.19;5005850;28;20041;-73
2023/01/11 11:49:14;;;;;;;5.25;3.25;;;;;;;4.23;83.05;100300.00;5008052;28;20041;-73
2023/01/11 11:51:43;;;;;;;6.35;3.15;;;;;;;4.19;82.83;100301.25;4996315;28;20409;-74
2023/01/11 11:54:27;;;;;;;5.68;3.10;;;;;;;4.15;83.19;100297.19;5001671;28;20101;-74
2023/01/11 11:56:56;;;;;;;7.93;3.58;;;;;;;4.27;83.18;100292.63;5012562;28;20045;-73
2023/01/11 11:59:27;;;;;;;6.68;3.47;;;;;;;4.22;83.12;100289.53;5009002;28;20046;-72
2023/01/11 12:01:59;;;;;;;4.15;2.65;;;;;;;4.28;83.09;100292.53;5013221;28;20125;-73
2023/01/11 12:04:38;;;;;;;5.88;3.92;;;;;;;4.39;83.00;100288.97;5013259;28;20053;-73
2023/01/11 12:07:14;;;;;;;10.25;3.92;;;;;;;4.50;82.85;100283.59;5012773;28;20045;-74
2023/01/11 12:09:46;;;;;;;10.63;3.60;;;;;;;4.38;82.90;100289.09;5012426;28;20466;-74
2023/01/11 12:12:21;;;;;;;9.15;3.90;;;;;;;4.31;83.04;100283.44;5014212;28;20065;-74
2023/01/11 12:15:19;;;;;;;5.18;3.28;;;;;;;4.30;83.24;100269.31;5013047;28;20049;-73
2023/01/11 12:17:46;;;;;;;7.22;3.03;;;;;;;4.44;83.33;100267.31;5013599;28;20065;-74
2023/01/11 12:20:22;;;;;;;4.53;3.47;;;;;;;4.75;82.29;100262.84;5012767;28;20042;-74
2023/01/11 12:23:14;;;;;;;8.38;3.80;;;;;;;4.77;82.02;100268.91;4994733;28;20143;-74
2023/01/11 12:26:10;;;;;;;6.00;3.17;;;;;;;4.57;83.05;100268.78;5012283;28;20119;-74
2023/01/11 12:29:13;;;;;;;5.28;2.83;;;;;;;4.68;82.70;100256.41;5001820;28;20069;-74
2023/01/11 12:32:04;;;;;;;8.38;3.30;;;;;;;4.75;82.72;100253.06;4993823;28;20053;-74